This is the latest recevied weather packets stored in our database for station/object W6UA-13. If no packets are shown the sender has not sent any weather packets the latest 10 day(s).
| Time | Temp. | Humidity | Pressure | Rain* | Wind** | Luminosity | Snow |
|---|---|---|---|---|---|---|---|
| 1777667688 | 18.89° C | 67% | 1015 hPa | 0 mm | - | 877 W/m² | - |
| 1777664088 | 16.67° C | 73% | 1015.4 hPa | 0 mm | - | 907 W/m² | - |
| 1777662288 | 16.11° C | 74% | 1015.7 hPa | 0 mm | - | 476 W/m² | - |
| 1777658688 | 15.56° C | 77% | 1015.5 hPa | 0 mm | - | 501 W/m² | - |
| 1777655988 | 13.89° C | 81% | 1015.8 hPa | 0 mm | - | 276 W/m² | - |
| 1777653288 | 13.33° C | 83% | 1015.7 hPa | 0 mm | - | 178 W/m² | - |
| 1777649688 | 12.22° C | 88% | 1015.3 hPa | 0 mm | - | 114 W/m² | - |
| 1777648788 | 11.67° C | 89% | 1015.2 hPa | 0 mm | - | 93 W/m² | - |
| 1777647888 | 11.67° C | 89% | 1014.9 hPa | 0 mm | - | 81 W/m² | - |
| 1777646088 | 11.11° C | 89% | 1014.7 hPa | 0 mm | - | 47 W/m² | - |
| 1777645188 | 11.11° C | 89% | 1014.6 hPa | 0 mm | - | 32 W/m² | - |
| 1777644288 | 11.11° C | 89% | 1014.5 hPa | 0 mm | - | 21 W/m² | - |
| 1777642488 | 10.56° C | 89% | 1014.3 hPa | 0 mm | - | 7 W/m² | - |
| 1777637988 | 10.56° C | 89% | 1013.7 hPa | 0 mm | - | 0 W/m² | - |
| 1777637088 | 10.56° C | 88% | 1013.6 hPa | 0 mm | - | 0 W/m² | - |
| 1777635288 | 10.56° C | 88% | 1013.3 hPa | 0 mm | - | 0 W/m² | - |
| 1777634388 | 11.11° C | 88% | 1013.2 hPa | 0 mm | - | 0 W/m² | - |
| 1777633488 | 11.11° C | 87% | 1013.3 hPa | 0 mm | - | 0 W/m² | - |
| 1777632588 | 11.11° C | 87% | 1013.6 hPa | 0 mm | - | 0 W/m² | - |
| 1777631688 | 11.11° C | 87% | 1013.5 hPa | 0 mm | - | 0 W/m² | - |
| 1777630788 | 11.11° C | 87% | 1013.4 hPa | 0 mm | - | 0 W/m² | - |
| 1777629888 | 11.67° C | 87% | 1013.2 hPa | 0 mm | - | 0 W/m² | - |
| 1777628988 | 11.67° C | 87% | 1013.2 hPa | 0 mm | - | 0 W/m² | - |
| 1777628088 | 11.67° C | 86% | 1013.2 hPa | 0 mm | - | 0 W/m² | - |
| 1777627188 | 11.67° C | 86% | 1013.2 hPa | 0 mm | - | 0 W/m² | - |
* Rain latest hour (hover to see other rain measurements)
** Current wind speed in m/s (hover to see current wind gust speed)